sensor_id;sensor_type;location;lat;lon;timestamp;P1;durP1;ratioP1;P2;durP2;ratioP2
3527;SDS011;1778;47.966;7.854;2023-11-21T00:00:32;5.43;;;2.90;;
3527;SDS011;1778;47.966;7.854;2023-11-21T00:01:34;4.40;;;2.70;;
3527;SDS011;1778;47.966;7.854;2023-11-21T00:02:35;2.63;;;2.57;;
3527;SDS011;1778;47.966;7.854;2023-11-21T00:03:39;7.70;;;3.23;;
3527;SDS011;1778;47.966;7.854;2023-11-21T00:04:41;3.57;;;2.70;;
3527;SDS011;1778;47.966;7.854;2023-11-21T00:05:42;3.00;;;2.90;;
3527;SDS011;1778;47.966;7.854;2023-11-21T00:06:44;3.37;;;3.10;;
3527;SDS011;1778;47.966;7.854;2023-11-21T00:07:48;2.90;;;2.80;;
3527;SDS011;1778;47.966;7.854;2023-11-21T00:08:49;3.33;;;3.03;;
3527;SDS011;1778;47.966;7.854;2023-11-21T00:09:51;3.17;;;3.07;;
3527;SDS011;1778;47.966;7.854;2023-11-21T00:10:52;2.67;;;2.67;;
3527;SDS011;1778;47.966;7.854;2023-11-21T00:11:53;3.60;;;2.93;;
3527;SDS011;1778;47.966;7.854;2023-11-21T00:12:55;5.67;;;2.87;;
3527;SDS011;1778;47.966;7.854;2023-11-21T00:13:57;2.90;;;2.80;;
3527;SDS011;1778;47.966;7.854;2023-11-21T00:14:58;3.50;;;3.20;;
3527;SDS011;1778;47.966;7.854;2023-11-21T00:15:59;6.07;;;2.77;;
3527;SDS011;1778;47.966;7.854;2023-11-21T00:17:01;3.67;;;3.20;;
3527;SDS011;1778;47.966;7.854;2023-11-21T00:19:15;3.67;;;3.33;;
3527;SDS011;1778;47.966;7.854;2023-11-21T00:20:17;4.10;;;3.47;;
3527;SDS011;1778;47.966;7.854;2023-11-21T00:21:18;3.40;;;3.20;;
3527;SDS011;1778;47.966;7.854;2023-11-21T00:22:20;3.30;;;3.10;;
3527;SDS011;1778;47.966;7.854;2023-11-21T00:23:21;3.17;;;3.07;;
3527;SDS011;1778;47.966;7.854;2023-11-21T00:24:23;11.90;;;3.57;;
3527;SDS011;1778;47.966;7.854;2023-11-21T00:25:25;3.97;;;3.67;;
3527;SDS011;1778;47.966;7.854;2023-11-21T00:26:27;4.57;;;3.83;;
3527;SDS011;1778;47.966;7.854;2023-11-21T00:27:35;3.10;;;2.90;;
3527;SDS011;1778;47.966;7.854;2023-11-21T00:28:37;3.47;;;3.27;;
3527;SDS011;1778;47.966;7.854;2023-11-21T00:29:39;16.07;;;3.77;;
3527;SDS011;1778;47.966;7.854;2023-11-21T00:30:40;5.93;;;3.10;;
3527;SDS011;1778;47.966;7.854;2023-11-21T00:31:42;2.90;;;2.80;;
3527;SDS011;1778;47.966;7.854;2023-11-21T00:32:43;3.53;;;3.23;;
3527;SDS011;1778;47.966;7.854;2023-11-21T00:33:46;3.17;;;3.07;;
3527;SDS011;1778;47.966;7.854;2023-11-21T00:34:47;3.00;;;2.90;;
3527;SDS011;1778;47.966;7.854;2023-11-21T00:35:48;6.80;;;3.10;;
3527;SDS011;1778;47.966;7.854;2023-11-21T00:36:50;3.53;;;3.33;;
3527;SDS011;1778;47.966;7.854;2023-11-21T00:37:52;3.20;;;3.00;;
3527;SDS011;1778;47.966;7.854;2023-11-21T00:38:53;3.87;;;3.60;;
3527;SDS011;1778;47.966;7.854;2023-11-21T00:39:56;3.50;;;3.30;;
3527;SDS011;1778;47.966;7.854;2023-11-21T00:40:58;5.00;;;3.07;;
3527;SDS011;1778;47.966;7.854;2023-11-21T00:41:59;3.37;;;3.07;;
3527;SDS011;1778;47.966;7.854;2023-11-21T00:43:01;2.60;;;2.60;;
3527;SDS011;1778;47.966;7.854;2023-11-21T00:44:06;2.60;;;2.60;;
3527;SDS011;1778;47.966;7.854;2023-11-21T00:45:08;3.97;;;3.23;;
3527;SDS011;1778;47.966;7.854;2023-11-21T00:46:10;5.07;;;3.20;;
3527;SDS011;1778;47.966;7.854;2023-11-21T00:47:11;3.03;;;2.93;;
3527;SDS011;1778;47.966;7.854;2023-11-21T00:48:13;3.40;;;3.20;;
3527;SDS011;1778;47.966;7.854;2023-11-21T00:49:15;4.90;;;3.10;;
3527;SDS011;1778;47.966;7.854;2023-11-21T00:50:17;3.37;;;3.37;;
3527;SDS011;1778;47.966;7.854;2023-11-21T00:51:18;3.10;;;3.00;;
3527;SDS011;1778;47.966;7.854;2023-11-21T00:52:20;3.33;;;3.23;;
3527;SDS011;1778;47.966;7.854;2023-11-21T00:53:21;5.53;;;3.33;;
3527;SDS011;1778;47.966;7.854;2023-11-21T00:54:22;3.60;;;3.03;;
3527;SDS011;1778;47.966;7.854;2023-11-21T00:55:25;3.33;;;3.23;;
3527;SDS011;1778;47.966;7.854;2023-11-21T00:56:31;3.27;;;3.03;;
3527;SDS011;1778;47.966;7.854;2023-11-21T00:57:45;3.17;;;3.07;;
3527;SDS011;1778;47.966;7.854;2023-11-21T00:58:46;6.67;;;2.93;;
3527;SDS011;1778;47.966;7.854;2023-11-21T00:59:51;7.50;;;3.23;;
3527;SDS011;1778;47.966;7.854;2023-11-21T01:00:52;3.00;;;2.80;;
3527;SDS011;1778;47.966;7.854;2023-11-21T01:01:54;3.63;;;3.43;;
3527;SDS011;1778;47.966;7.854;2023-11-21T01:02:55;3.10;;;3.10;;
3527;SDS011;1778;47.966;7.854;2023-11-21T01:03:57;3.27;;;3.17;;
3527;SDS011;1778;47.966;7.854;2023-11-21T01:04:59;3.00;;;2.90;;
3527;SDS011;1778;47.966;7.854;2023-11-21T01:06:00;3.40;;;3.20;;
3527;SDS011;1778;47.966;7.854;2023-11-21T01:07:02;2.93;;;2.93;;
3527;SDS011;1778;47.966;7.854;2023-11-21T01:08:04;2.67;;;2.57;;
3527;SDS011;1778;47.966;7.854;2023-11-21T01:09:06;3.00;;;2.90;;
3527;SDS011;1778;47.966;7.854;2023-11-21T01:10:09;3.00;;;2.80;;
3527;SDS011;1778;47.966;7.854;2023-11-21T01:11:11;2.70;;;2.70;;
3527;SDS011;1778;47.966;7.854;2023-11-21T01:12:13;8.10;;;3.10;;
3527;SDS011;1778;47.966;7.854;2023-11-21T01:13:15;3.00;;;2.80;;
3527;SDS011;1778;47.966;7.854;2023-11-21T01:14:17;3.13;;;2.97;;
3527;SDS011;1778;47.966;7.854;2023-11-21T01:15:18;2.57;;;2.57;;
3527;SDS011;1778;47.966;7.854;2023-11-21T01:16:20;2.53;;;2.50;;
3527;SDS011;1778;47.966;7.854;2023-11-21T01:17:21;2.80;;;2.70;;
3527;SDS011;1778;47.966;7.854;2023-11-21T01:18:25;2.77;;;2.77;;
3527;SDS011;1778;47.966;7.854;2023-11-21T01:19:26;2.93;;;2.83;;
3527;SDS011;1778;47.966;7.854;2023-11-21T01:20:30;3.90;;;2.63;;
3527;SDS011;1778;47.966;7.854;2023-11-21T01:21:32;2.47;;;2.47;;
3527;SDS011;1778;47.966;7.854;2023-11-21T01:22:34;3.07;;;2.80;;
3527;SDS011;1778;47.966;7.854;2023-11-21T01:23:36;3.43;;;2.63;;
3527;SDS011;1778;47.966;7.854;2023-11-21T01:24:37;2.80;;;2.80;;
3527;SDS011;1778;47.966;7.854;2023-11-21T01:25:38;2.43;;;2.43;;
3527;SDS011;1778;47.966;7.854;2023-11-21T01:26:40;2.77;;;2.67;;
3527;SDS011;1778;47.966;7.854;2023-11-21T01:27:42;2.50;;;2.50;;
3527;SDS011;1778;47.966;7.854;2023-11-21T01:28:44;2.40;;;2.30;;
3527;SDS011;1778;47.966;7.854;2023-11-21T01:29:45;2.67;;;2.67;;
3527;SDS011;1778;47.966;7.854;2023-11-21T01:30:47;2.73;;;2.73;;
3527;SDS011;1778;47.966;7.854;2023-11-21T01:31:49;2.70;;;2.60;;
3527;SDS011;1778;47.966;7.854;2023-11-21T01:32:50;2.60;;;2.60;;
3527;SDS011;1778;47.966;7.854;2023-11-21T01:33:52;2.50;;;2.50;;
3527;SDS011;1778;47.966;7.854;2023-11-21T01:34:54;3.83;;;2.60;;
3527;SDS011;1778;47.966;7.854;2023-11-21T01:35:56;3.20;;;2.70;;
3527;SDS011;1778;47.966;7.854;2023-11-21T01:36:57;2.90;;;2.90;;
3527;SDS011;1778;47.966;7.854;2023-11-21T01:37:58;2.80;;;2.60;;
3527;SDS011;1778;47.966;7.854;2023-11-21T01:39:00;4.20;;;2.60;;
3527;SDS011;1778;47.966;7.854;2023-11-21T01:40:02;2.30;;;2.30;;
3527;SDS011;1778;47.966;7.854;2023-11-21T01:41:06;2.70;;;2.70;;
3527;SDS011;1778;47.966;7.854;2023-11-21T01:42:07;2.50;;;2.50;;
3527;SDS011;1778;47.966;7.854;2023-11-21T01:43:09;2.40;;;2.40;;
3527;SDS011;1778;47.966;7.854;2023-11-21T01:44:11;3.83;;;2.77;;
3527;SDS011;1778;47.966;7.854;2023-11-21T01:45:14;2.50;;;2.40;;
3527;SDS011;1778;47.966;7.854;2023-11-21T01:46:15;2.20;;;2.20;;
3527;SDS011;1778;47.966;7.854;2023-11-21T01:47:17;3.23;;;2.33;;
3527;SDS011;1778;47.966;7.854;2023-11-21T01:48:19;2.57;;;2.57;;
3527;SDS011;1778;47.966;7.854;2023-11-21T01:49:21;3.00;;;2.90;;
3527;SDS011;1778;47.966;7.854;2023-11-21T01:50:23;5.90;;;2.33;;
3527;SDS011;1778;47.966;7.854;2023-11-21T01:51:25;2.47;;;2.47;;
3527;SDS011;1778;47.966;7.854;2023-11-21T01:52:27;2.17;;;2.17;;
3527;SDS011;1778;47.966;7.854;2023-11-21T01:53:29;2.10;;;2.10;;
3527;SDS011;1778;47.966;7.854;2023-11-21T01:54:33;2.90;;;2.57;;
3527;SDS011;1778;47.966;7.854;2023-11-21T01:55:44;4.83;;;2.57;;
3527;SDS011;1778;47.966;7.854;2023-11-21T01:56:47;2.27;;;2.27;;
3527;SDS011;1778;47.966;7.854;2023-11-21T01:57:48;2.40;;;2.40;;
3527;SDS011;1778;47.966;7.854;2023-11-21T01:58:50;2.03;;;2.03;;
3527;SDS011;1778;47.966;7.854;2023-11-21T01:59:52;2.10;;;2.10;;
3527;SDS011;1778;47.966;7.854;2023-11-21T02:00:55;2.30;;;2.27;;
3527;SDS011;1778;47.966;7.854;2023-11-21T02:01:57;2.93;;;2.40;;
3527;SDS011;1778;47.966;7.854;2023-11-21T02:02:58;2.10;;;2.10;;
3527;SDS011;1778;47.966;7.854;2023-11-21T02:04:00;2.40;;;2.40;;
3527;SDS011;1778;47.966;7.854;2023-11-21T02:05:02;2.10;;;2.10;;
3527;SDS011;1778;47.966;7.854;2023-11-21T02:06:05;3.80;;;2.20;;
3527;SDS011;1778;47.966;7.854;2023-11-21T02:07:06;2.20;;;2.10;;
3527;SDS011;1778;47.966;7.854;2023-11-21T02:08:08;4.93;;;2.10;;
3527;SDS011;1778;47.966;7.854;2023-11-21T02:09:10;4.50;;;2.00;;
3527;SDS011;1778;47.966;7.854;2023-11-21T02:10:16;2.50;;;2.20;;
3527;SDS011;1778;47.966;7.854;2023-11-21T02:11:18;2.07;;;2.07;;
3527;SDS011;1778;47.966;7.854;2023-11-21T02:12:20;2.33;;;2.23;;
3527;SDS011;1778;47.966;7.854;2023-11-21T02:13:22;6.83;;;2.40;;
3527;SDS011;1778;47.966;7.854;2023-11-21T02:14:23;1.93;;;1.93;;
3527;SDS011;1778;47.966;7.854;2023-11-21T02:15:25;2.20;;;2.10;;
3527;SDS011;1778;47.966;7.854;2023-11-21T02:16:29;2.30;;;2.30;;
3527;SDS011;1778;47.966;7.854;2023-11-21T02:17:32;2.03;;;2.03;;
3527;SDS011;1778;47.966;7.854;2023-11-21T02:18:34;6.53;;;2.33;;
3527;SDS011;1778;47.966;7.854;2023-11-21T02:19:35;2.23;;;2.13;;
3527;SDS011;1778;47.966;7.854;2023-11-21T02:20:37;2.07;;;2.07;;
3527;SDS011;1778;47.966;7.854;2023-11-21T02:21:40;2.60;;;2.30;;
3527;SDS011;1778;47.966;7.854;2023-11-21T02:22:42;1.90;;;1.90;;
3527;SDS011;1778;47.966;7.854;2023-11-21T02:24:00;2.17;;;2.07;;
3527;SDS011;1778;47.966;7.854;2023-11-21T02:25:02;2.20;;;2.20;;
3527;SDS011;1778;47.966;7.854;2023-11-21T02:26:04;2.30;;;2.10;;
3527;SDS011;1778;47.966;7.854;2023-11-21T02:27:06;7.13;;;2.00;;
3527;SDS011;1778;47.966;7.854;2023-11-21T02:28:08;2.17;;;2.17;;
3527;SDS011;1778;47.966;7.854;2023-11-21T02:29:10;5.50;;;2.27;;
3527;SDS011;1778;47.966;7.854;2023-11-21T02:30:14;2.53;;;2.33;;
3527;SDS011;1778;47.966;7.854;2023-11-21T02:31:16;1.97;;;1.97;;
3527;SDS011;1778;47.966;7.854;2023-11-21T02:32:20;2.13;;;2.03;;
3527;SDS011;1778;47.966;7.854;2023-11-21T02:33:23;4.30;;;2.13;;
3527;SDS011;1778;47.966;7.854;2023-11-21T02:34:26;1.90;;;1.90;;
3527;SDS011;1778;47.966;7.854;2023-11-21T02:35:27;2.70;;;2.03;;
3527;SDS011;1778;47.966;7.854;2023-11-21T02:36:28;2.10;;;2.10;;
3527;SDS011;1778;47.966;7.854;2023-11-21T02:37:31;1.80;;;1.80;;
3527;SDS011;1778;47.966;7.854;2023-11-21T02:38:32;3.80;;;2.33;;
3527;SDS011;1778;47.966;7.854;2023-11-21T02:39:34;2.00;;;1.90;;
3527;SDS011;1778;47.966;7.854;2023-11-21T02:40:36;1.93;;;1.93;;
3527;SDS011;1778;47.966;7.854;2023-11-21T02:41:37;2.20;;;2.10;;
3527;SDS011;1778;47.966;7.854;2023-11-21T02:42:40;2.27;;;2.27;;
3527;SDS011;1778;47.966;7.854;2023-11-21T02:43:42;2.40;;;2.30;;
3527;SDS011;1778;47.966;7.854;2023-11-21T02:44:43;2.40;;;2.30;;
3527;SDS011;1778;47.966;7.854;2023-11-21T02:45:50;2.40;;;2.30;;
3527;SDS011;1778;47.966;7.854;2023-11-21T02:46:52;2.10;;;2.10;;
3527;SDS011;1778;47.966;7.854;2023-11-21T02:47:53;2.23;;;2.23;;
3527;SDS011;1778;47.966;7.854;2023-11-21T02:49:00;2.30;;;2.20;;
3527;SDS011;1778;47.966;7.854;2023-11-21T02:50:02;2.40;;;2.30;;
3527;SDS011;1778;47.966;7.854;2023-11-21T02:51:04;2.50;;;2.40;;
3527;SDS011;1778;47.966;7.854;2023-11-21T02:52:06;4.17;;;2.60;;
3527;SDS011;1778;47.966;7.854;2023-11-21T02:53:07;2.63;;;2.53;;
3527;SDS011;1778;47.966;7.854;2023-11-21T02:54:20;2.43;;;2.43;;
3527;SDS011;1778;47.966;7.854;2023-11-21T02:55:33;2.27;;;2.27;;
3527;SDS011;1778;47.966;7.854;2023-11-21T02:56:37;2.30;;;2.20;;
3527;SDS011;1778;47.966;7.854;2023-11-21T02:57:40;2.10;;;2.10;;
3527;SDS011;1778;47.966;7.854;2023-11-21T02:58:43;3.17;;;2.10;;
3527;SDS011;1778;47.966;7.854;2023-11-21T02:59:45;2.00;;;2.00;;
3527;SDS011;1778;47.966;7.854;2023-11-21T03:00:46;2.10;;;2.10;;
3527;SDS011;1778;47.966;7.854;2023-11-21T03:01:48;1.97;;;1.97;;
3527;SDS011;1778;47.966;7.854;2023-11-21T03:02:50;2.27;;;2.27;;
3527;SDS011;1778;47.966;7.854;2023-11-21T03:03:52;2.20;;;2.00;;
3527;SDS011;1778;47.966;7.854;2023-11-21T03:04:54;2.20;;;2.20;;
3527;SDS011;1778;47.966;7.854;2023-11-21T03:05:55;2.13;;;2.03;;
3527;SDS011;1778;47.966;7.854;2023-11-21T03:06:56;2.17;;;2.17;;
3527;SDS011;1778;47.966;7.854;2023-11-21T03:07:58;2.43;;;2.43;;
3527;SDS011;1778;47.966;7.854;2023-11-21T03:08:59;2.90;;;2.80;;
3527;SDS011;1778;47.966;7.854;2023-11-21T03:10:01;2.60;;;2.50;;
3527;SDS011;1778;47.966;7.854;2023-11-21T03:11:05;2.40;;;2.13;;
3527;SDS011;1778;47.966;7.854;2023-11-21T03:12:07;2.40;;;2.20;;
3527;SDS011;1778;47.966;7.854;2023-11-21T03:13:10;2.17;;;2.07;;
3527;SDS011;1778;47.966;7.854;2023-11-21T03:14:12;2.37;;;2.27;;
3527;SDS011;1778;47.966;7.854;2023-11-21T03:15:13;2.20;;;2.10;;
3527;SDS011;1778;47.966;7.854;2023-11-21T03:16:16;2.30;;;2.30;;
3527;SDS011;1778;47.966;7.854;2023-11-21T03:17:20;2.40;;;2.23;;
3527;SDS011;1778;47.966;7.854;2023-11-21T03:18:21;2.37;;;2.27;;
3527;SDS011;1778;47.966;7.854;2023-11-21T03:19:23;2.37;;;2.37;;
3527;SDS011;1778;47.966;7.854;2023-11-21T03:20:25;2.40;;;2.40;;
3527;SDS011;1778;47.966;7.854;2023-11-21T03:21:26;2.40;;;2.40;;
3527;SDS011;1778;47.966;7.854;2023-11-21T03:22:27;2.37;;;2.37;;
3527;SDS011;1778;47.966;7.854;2023-11-21T03:23:29;2.00;;;2.00;;
3527;SDS011;1778;47.966;7.854;2023-11-21T03:24:31;3.40;;;3.10;;
3527;SDS011;1778;47.966;7.854;2023-11-21T03:25:33;2.57;;;2.47;;
3527;SDS011;1778;47.966;7.854;2023-11-21T03:26:35;2.93;;;2.73;;
3527;SDS011;1778;47.966;7.854;2023-11-21T03:27:38;2.20;;;2.20;;
3527;SDS011;1778;47.966;7.854;2023-11-21T03:28:40;2.30;;;2.20;;
3527;SDS011;1778;47.966;7.854;2023-11-21T03:29:41;2.40;;;2.30;;
3527;SDS011;1778;47.966;7.854;2023-11-21T03:30:43;2.70;;;2.60;;
3527;SDS011;1778;47.966;7.854;2023-11-21T03:31:44;2.20;;;2.20;;
3527;SDS011;1778;47.966;7.854;2023-11-21T03:32:46;2.60;;;2.50;;
3527;SDS011;1778;47.966;7.854;2023-11-21T03:33:48;4.23;;;2.50;;
3527;SDS011;1778;47.966;7.854;2023-11-21T03:34:55;2.80;;;2.70;;
3527;SDS011;1778;47.966;7.854;2023-11-21T03:35:59;2.63;;;2.53;;
3527;SDS011;1778;47.966;7.854;2023-11-21T03:37:01;2.17;;;2.17;;
3527;SDS011;1778;47.966;7.854;2023-11-21T03:38:02;2.57;;;2.47;;
3527;SDS011;1778;47.966;7.854;2023-11-21T03:39:05;2.40;;;2.40;;
3527;SDS011;1778;47.966;7.854;2023-11-21T03:40:07;2.87;;;2.67;;
3527;SDS011;1778;47.966;7.854;2023-11-21T03:41:10;2.40;;;2.30;;
3527;SDS011;1778;47.966;7.854;2023-11-21T03:42:11;2.47;;;2.47;;
3527;SDS011;1778;47.966;7.854;2023-11-21T03:43:13;2.43;;;2.23;;
3527;SDS011;1778;47.966;7.854;2023-11-21T03:44:15;4.73;;;2.83;;
3527;SDS011;1778;47.966;7.854;2023-11-21T03:45:16;4.60;;;3.20;;
3527;SDS011;1778;47.966;7.854;2023-11-21T03:46:18;2.67;;;2.47;;
3527;SDS011;1778;47.966;7.854;2023-11-21T03:47:19;2.60;;;2.50;;
3527;SDS011;1778;47.966;7.854;2023-11-21T03:48:21;2.77;;;2.57;;
3527;SDS011;1778;47.966;7.854;2023-11-21T03:49:24;2.97;;;2.67;;
3527;SDS011;1778;47.966;7.854;2023-11-21T03:50:25;2.33;;;2.27;;
3527;SDS011;1778;47.966;7.854;2023-11-21T03:51:27;2.40;;;2.37;;
3527;SDS011;1778;47.966;7.854;2023-11-21T03:52:31;2.23;;;2.23;;
3527;SDS011;1778;47.966;7.854;2023-11-21T03:53:57;2.30;;;2.20;;
3527;SDS011;1778;47.966;7.854;2023-11-21T03:54:59;2.70;;;2.50;;
3527;SDS011;1778;47.966;7.854;2023-11-21T03:56:02;2.67;;;2.57;;
3527;SDS011;1778;47.966;7.854;2023-11-21T03:57:06;2.47;;;2.47;;
3527;SDS011;1778;47.966;7.854;2023-11-21T03:58:07;2.33;;;2.33;;
3527;SDS011;1778;47.966;7.854;2023-11-21T03:59:09;2.13;;;2.13;;
3527;SDS011;1778;47.966;7.854;2023-11-21T04:00:12;2.60;;;2.40;;
3527;SDS011;1778;47.966;7.854;2023-11-21T04:01:23;2.40;;;2.30;;
3527;SDS011;1778;47.966;7.854;2023-11-21T04:02:25;2.30;;;2.30;;
3527;SDS011;1778;47.966;7.854;2023-11-21T04:03:27;2.50;;;2.40;;
3527;SDS011;1778;47.966;7.854;2023-11-21T04:04:28;2.73;;;2.63;;
3527;SDS011;1778;47.966;7.854;2023-11-21T04:05:30;4.13;;;2.60;;
3527;SDS011;1778;47.966;7.854;2023-11-21T04:06:32;2.70;;;2.60;;
3527;SDS011;1778;47.966;7.854;2023-11-21T04:07:33;2.60;;;2.60;;
3527;SDS011;1778;47.966;7.854;2023-11-21T04:08:36;2.57;;;2.47;;
3527;SDS011;1778;47.966;7.854;2023-11-21T04:09:37;2.43;;;2.33;;
3527;SDS011;1778;47.966;7.854;2023-11-21T04:10:38;2.10;;;2.10;;
3527;SDS011;1778;47.966;7.854;2023-11-21T04:11:40;3.27;;;2.60;;
3527;SDS011;1778;47.966;7.854;2023-11-21T04:12:43;2.43;;;2.43;;
3527;SDS011;1778;47.966;7.854;2023-11-21T04:13:46;2.40;;;2.40;;
3527;SDS011;1778;47.966;7.854;2023-11-21T04:14:47;3.10;;;3.00;;
3527;SDS011;1778;47.966;7.854;2023-11-21T04:15:49;2.60;;;2.60;;
3527;SDS011;1778;47.966;7.854;2023-11-21T04:16:50;2.70;;;2.60;;
3527;SDS011;1778;47.966;7.854;2023-11-21T04:17:52;2.40;;;2.40;;
3527;SDS011;1778;47.966;7.854;2023-11-21T04:18:54;2.57;;;2.47;;
3527;SDS011;1778;47.966;7.854;2023-11-21T04:19:55;3.13;;;3.03;;
3527;SDS011;1778;47.966;7.854;2023-11-21T04:20:57;2.60;;;2.50;;
3527;SDS011;1778;47.966;7.854;2023-11-21T04:21:58;2.50;;;2.40;;
3527;SDS011;1778;47.966;7.854;2023-11-21T04:22:59;2.73;;;2.73;;
3527;SDS011;1778;47.966;7.854;2023-11-21T04:24:01;2.40;;;2.40;;
3527;SDS011;1778;47.966;7.854;2023-11-21T04:25:03;6.63;;;2.77;;
3527;SDS011;1778;47.966;7.854;2023-11-21T04:26:05;5.60;;;2.60;;
3527;SDS011;1778;47.966;7.854;2023-11-21T04:27:07;2.47;;;2.47;;
3527;SDS011;1778;47.966;7.854;2023-11-21T04:28:09;2.93;;;2.70;;
3527;SDS011;1778;47.966;7.854;2023-11-21T04:29:10;2.80;;;2.70;;
3527;SDS011;1778;47.966;7.854;2023-11-21T04:30:12;2.83;;;2.67;;
3527;SDS011;1778;47.966;7.854;2023-11-21T04:31:14;5.97;;;2.67;;
3527;SDS011;1778;47.966;7.854;2023-11-21T04:32:15;6.10;;;2.70;;
3527;SDS011;1778;47.966;7.854;2023-11-21T04:33:17;2.30;;;2.30;;
3527;SDS011;1778;47.966;7.854;2023-11-21T04:34:18;2.87;;;2.80;;
3527;SDS011;1778;47.966;7.854;2023-11-21T04:35:20;2.27;;;2.27;;
3527;SDS011;1778;47.966;7.854;2023-11-21T04:36:22;3.53;;;3.00;;
3527;SDS011;1778;47.966;7.854;2023-11-21T04:37:23;2.83;;;2.80;;
3527;SDS011;1778;47.966;7.854;2023-11-21T04:38:25;2.70;;;2.70;;
3527;SDS011;1778;47.966;7.854;2023-11-21T04:39:26;2.40;;;2.40;;
3527;SDS011;1778;47.966;7.854;2023-11-21T04:40:28;2.70;;;2.70;;
3527;SDS011;1778;47.966;7.854;2023-11-21T04:41:30;2.50;;;2.40;;
3527;SDS011;1778;47.966;7.854;2023-11-21T04:42:35;2.77;;;2.67;;
3527;SDS011;1778;47.966;7.854;2023-11-21T04:43:37;3.07;;;2.87;;
3527;SDS011;1778;47.966;7.854;2023-11-21T04:44:39;3.33;;;2.67;;
3527;SDS011;1778;47.966;7.854;2023-11-21T04:45:41;3.13;;;2.70;;
3527;SDS011;1778;47.966;7.854;2023-11-21T04:46:43;2.83;;;2.83;;
3527;SDS011;1778;47.966;7.854;2023-11-21T04:47:45;6.67;;;2.93;;
3527;SDS011;1778;47.966;7.854;2023-11-21T04:48:46;3.17;;;2.63;;
3527;SDS011;1778;47.966;7.854;2023-11-21T04:49:48;3.40;;;3.20;;
3527;SDS011;1778;47.966;7.854;2023-11-21T04:50:51;3.10;;;3.10;;
3527;SDS011;1778;47.966;7.854;2023-11-21T04:51:56;2.93;;;2.83;;
3527;SDS011;1778;47.966;7.854;2023-11-21T04:53:06;9.27;;;2.70;;
3527;SDS011;1778;47.966;7.854;2023-11-21T04:54:07;2.30;;;2.30;;
3527;SDS011;1778;47.966;7.854;2023-11-21T04:55:10;2.67;;;2.57;;
3527;SDS011;1778;47.966;7.854;2023-11-21T04:56:12;4.03;;;2.60;;
3527;SDS011;1778;47.966;7.854;2023-11-21T04:57:13;3.47;;;3.23;;
3527;SDS011;1778;47.966;7.854;2023-11-21T04:58:15;3.23;;;3.10;;
3527;SDS011;1778;47.966;7.854;2023-11-21T04:59:17;3.47;;;2.87;;
3527;SDS011;1778;47.966;7.854;2023-11-21T05:00:18;3.30;;;3.10;;
3527;SDS011;1778;47.966;7.854;2023-11-21T05:01:20;2.90;;;2.80;;
3527;SDS011;1778;47.966;7.854;2023-11-21T05:02:22;3.20;;;3.10;;
3527;SDS011;1778;47.966;7.854;2023-11-21T05:03:35;2.93;;;2.93;;
3527;SDS011;1778;47.966;7.854;2023-11-21T05:04:37;2.83;;;2.83;;
3527;SDS011;1778;47.966;7.854;2023-11-21T05:05:38;2.97;;;2.70;;
3527;SDS011;1778;47.966;7.854;2023-11-21T05:06:40;3.50;;;3.50;;
3527;SDS011;1778;47.966;7.854;2023-11-21T05:07:41;3.10;;;3.10;;
3527;SDS011;1778;47.966;7.854;2023-11-21T05:08:43;4.40;;;4.20;;
3527;SDS011;1778;47.966;7.854;2023-11-21T05:09:45;3.10;;;3.00;;
3527;SDS011;1778;47.966;7.854;2023-11-21T05:10:47;2.50;;;2.50;;
3527;SDS011;1778;47.966;7.854;2023-11-21T05:11:49;2.50;;;2.50;;
3527;SDS011;1778;47.966;7.854;2023-11-21T05:12:51;3.20;;;3.10;;
3527;SDS011;1778;47.966;7.854;2023-11-21T05:13:52;3.00;;;2.90;;
3527;SDS011;1778;47.966;7.854;2023-11-21T05:14:54;3.03;;;3.03;;
3527;SDS011;1778;47.966;7.854;2023-11-21T05:15:56;3.00;;;3.00;;
3527;SDS011;1778;47.966;7.854;2023-11-21T05:17:00;8.03;;;3.60;;
3527;SDS011;1778;47.966;7.854;2023-11-21T05:18:02;3.90;;;3.67;;
3527;SDS011;1778;47.966;7.854;2023-11-21T05:19:04;3.53;;;3.53;;
3527;SDS011;1778;47.966;7.854;2023-11-21T05:20:07;9.80;;;3.67;;
3527;SDS011;1778;47.966;7.854;2023-11-21T05:21:10;3.83;;;3.63;;
3527;SDS011;1778;47.966;7.854;2023-11-21T05:22:12;3.60;;;3.50;;
3527;SDS011;1778;47.966;7.854;2023-11-21T05:23:14;3.77;;;3.50;;
3527;SDS011;1778;47.966;7.854;2023-11-21T05:24:15;4.10;;;3.60;;
3527;SDS011;1778;47.966;7.854;2023-11-21T05:25:17;3.70;;;3.67;;
3527;SDS011;1778;47.966;7.854;2023-11-21T05:26:21;4.10;;;3.80;;
3527;SDS011;1778;47.966;7.854;2023-11-21T05:27:23;3.77;;;3.67;;
3527;SDS011;1778;47.966;7.854;2023-11-21T05:28:24;3.60;;;3.60;;
3527;SDS011;1778;47.966;7.854;2023-11-21T05:29:26;3.53;;;3.43;;
3527;SDS011;1778;47.966;7.854;2023-11-21T05:30:28;3.60;;;3.50;;
3527;SDS011;1778;47.966;7.854;2023-11-21T05:31:30;3.50;;;3.40;;
3527;SDS011;1778;47.966;7.854;2023-11-21T05:32:31;3.43;;;3.43;;
3527;SDS011;1778;47.966;7.854;2023-11-21T05:33:33;3.90;;;3.83;;
3527;SDS011;1778;47.966;7.854;2023-11-21T05:34:35;3.83;;;3.77;;
3527;SDS011;1778;47.966;7.854;2023-11-21T05:35:36;4.03;;;3.90;;
3527;SDS011;1778;47.966;7.854;2023-11-21T05:36:38;4.33;;;4.00;;
3527;SDS011;1778;47.966;7.854;2023-11-21T05:37:39;4.03;;;3.57;;
3527;SDS011;1778;47.966;7.854;2023-11-21T05:38:40;3.67;;;3.47;;
3527;SDS011;1778;47.966;7.854;2023-11-21T05:39:42;9.00;;;3.40;;
3527;SDS011;1778;47.966;7.854;2023-11-21T05:40:44;3.80;;;3.80;;
3527;SDS011;1778;47.966;7.854;2023-11-21T05:41:45;5.57;;;3.83;;
3527;SDS011;1778;47.966;7.854;2023-11-21T05:42:50;3.37;;;3.37;;
3527;SDS011;1778;47.966;7.854;2023-11-21T05:43:52;4.03;;;3.80;;
3527;SDS011;1778;47.966;7.854;2023-11-21T05:44:55;3.20;;;3.20;;
3527;SDS011;1778;47.966;7.854;2023-11-21T05:46:00;4.93;;;3.63;;
3527;SDS011;1778;47.966;7.854;2023-11-21T05:47:03;4.07;;;3.97;;
3527;SDS011;1778;47.966;7.854;2023-11-21T05:48:04;3.73;;;3.73;;
3527;SDS011;1778;47.966;7.854;2023-11-21T05:49:07;3.73;;;3.73;;
3527;SDS011;1778;47.966;7.854;2023-11-21T05:50:10;4.13;;;4.03;;
3527;SDS011;1778;47.966;7.854;2023-11-21T05:51:31;3.73;;;3.73;;
3527;SDS011;1778;47.966;7.854;2023-11-21T05:52:42;4.60;;;4.50;;
3527;SDS011;1778;47.966;7.854;2023-11-21T05:53:47;4.77;;;4.17;;
3527;SDS011;1778;47.966;7.854;2023-11-21T05:54:48;4.80;;;4.53;;
3527;SDS011;1778;47.966;7.854;2023-11-21T05:55:50;4.20;;;3.90;;
3527;SDS011;1778;47.966;7.854;2023-11-21T05:56:51;4.90;;;4.40;;
3527;SDS011;1778;47.966;7.854;2023-11-21T05:57:53;4.40;;;4.30;;
3527;SDS011;1778;47.966;7.854;2023-11-21T05:58:55;3.90;;;3.90;;
3527;SDS011;1778;47.966;7.854;2023-11-21T05:59:56;4.33;;;4.23;;
3527;SDS011;1778;47.966;7.854;2023-11-21T06:00:57;4.27;;;4.27;;
3527;SDS011;1778;47.966;7.854;2023-11-21T06:01:59;3.93;;;3.83;;
3527;SDS011;1778;47.966;7.854;2023-11-21T06:03:00;4.00;;;3.90;;
3527;SDS011;1778;47.966;7.854;2023-11-21T06:04:02;4.17;;;4.07;;
3527;SDS011;1778;47.966;7.854;2023-11-21T06:05:05;4.10;;;4.00;;
3527;SDS011;1778;47.966;7.854;2023-11-21T06:06:08;4.07;;;3.97;;
3527;SDS011;1778;47.966;7.854;2023-11-21T06:07:10;4.37;;;4.27;;
3527;SDS011;1778;47.966;7.854;2023-11-21T06:08:11;5.00;;;4.27;;
3527;SDS011;1778;47.966;7.854;2023-11-21T06:09:13;5.10;;;4.90;;
3527;SDS011;1778;47.966;7.854;2023-11-21T06:10:14;5.60;;;4.13;;
3527;SDS011;1778;47.966;7.854;2023-11-21T06:11:16;4.60;;;4.40;;
3527;SDS011;1778;47.966;7.854;2023-11-21T06:12:17;4.27;;;4.17;;
3527;SDS011;1778;47.966;7.854;2023-11-21T06:13:21;4.20;;;4.10;;
3527;SDS011;1778;47.966;7.854;2023-11-21T06:14:25;3.80;;;3.70;;
3527;SDS011;1778;47.966;7.854;2023-11-21T06:15:27;10.13;;;4.93;;
3527;SDS011;1778;47.966;7.854;2023-11-21T06:16:30;4.03;;;3.93;;
3527;SDS011;1778;47.966;7.854;2023-11-21T06:17:31;4.07;;;3.97;;
3527;SDS011;1778;47.966;7.854;2023-11-21T06:18:34;7.23;;;4.03;;
3527;SDS011;1778;47.966;7.854;2023-11-21T06:19:36;4.50;;;4.30;;
3527;SDS011;1778;47.966;7.854;2023-11-21T06:20:37;4.00;;;3.90;;
3527;SDS011;1778;47.966;7.854;2023-11-21T06:21:39;3.87;;;3.80;;
3527;SDS011;1778;47.966;7.854;2023-11-21T06:22:41;4.03;;;3.93;;
3527;SDS011;1778;47.966;7.854;2023-11-21T06:23:44;4.30;;;4.20;;
3527;SDS011;1778;47.966;7.854;2023-11-21T06:24:45;4.10;;;4.00;;
3527;SDS011;1778;47.966;7.854;2023-11-21T06:25:47;4.47;;;4.37;;
3527;SDS011;1778;47.966;7.854;2023-11-21T06:26:49;4.20;;;4.10;;
3527;SDS011;1778;47.966;7.854;2023-11-21T06:27:50;4.63;;;4.33;;
3527;SDS011;1778;47.966;7.854;2023-11-21T06:28:53;4.33;;;4.23;;